sensor_id;sensor_type;location;lat;lon;timestamp;temperature;humidity
7000;DHT22;3540;53.242;10.408;2022-09-27T00:00:24;10.30;99.90
7000;DHT22;3540;53.242;10.408;2022-09-27T00:02:50;10.30;99.90
7000;DHT22;3540;53.242;10.408;2022-09-27T00:05:16;10.30;99.90
7000;DHT22;3540;53.242;10.408;2022-09-27T00:07:43;10.30;99.90
7000;DHT22;3540;53.242;10.408;2022-09-27T00:10:09;10.30;99.90
7000;DHT22;3540;53.242;10.408;2022-09-27T00:12:35;10.30;99.90
7000;DHT22;3540;53.242;10.408;2022-09-27T00:15:02;10.30;99.90
7000;DHT22;3540;53.242;10.408;2022-09-27T00:17:28;10.30;99.90
7000;DHT22;3540;53.242;10.408;2022-09-27T00:19:54;10.30;99.90
7000;DHT22;3540;53.242;10.408;2022-09-27T00:22:23;10.30;99.90
7000;DHT22;3540;53.242;10.408;2022-09-27T00:24:49;10.30;99.90
7000;DHT22;3540;53.242;10.408;2022-09-27T00:27:15;10.30;99.90
7000;DHT22;3540;53.242;10.408;2022-09-27T00:29:40;10.30;99.90
7000;DHT22;3540;53.242;10.408;2022-09-27T00:32:06;10.30;99.90
7000;DHT22;3540;53.242;10.408;2022-09-27T00:34:31;10.30;99.90
7000;DHT22;3540;53.242;10.408;2022-09-27T00:36:57;10.20;99.90
7000;DHT22;3540;53.242;10.408;2022-09-27T00:39:23;10.20;99.90
7000;DHT22;3540;53.242;10.408;2022-09-27T00:41:49;10.20;99.90
7000;DHT22;3540;53.242;10.408;2022-09-27T00:47:26;10.30;99.90
7000;DHT22;3540;53.242;10.408;2022-09-27T00:49:59;10.20;99.90
7000;DHT22;3540;53.242;10.408;2022-09-27T00:55:33;10.20;99.90
7000;DHT22;3540;53.242;10.408;2022-09-27T00:58:02;10.20;99.90
7000;DHT22;3540;53.242;10.408;2022-09-27T01:00:29;10.20;99.90
7000;DHT22;3540;53.242;10.408;2022-09-27T01:02:56;10.30;99.90
7000;DHT22;3540;53.242;10.408;2022-09-27T01:05:24;10.30;99.90
7000;DHT22;3540;53.242;10.408;2022-09-27T01:07:51;10.20;99.90
7000;DHT22;3540;53.242;10.408;2022-09-27T01:10:22;10.20;99.90
7000;DHT22;3540;53.242;10.408;2022-09-27T01:12:57;10.20;99.90
7000;DHT22;3540;53.242;10.408;2022-09-27T01:15:28;10.20;99.90
7000;DHT22;3540;53.242;10.408;2022-09-27T01:19:19;10.20;99.90
7000;DHT22;3540;53.242;10.408;2022-09-27T01:23:59;10.20;99.90
7000;DHT22;3540;53.242;10.408;2022-09-27T01:26:42;10.20;99.90
7000;DHT22;3540;53.242;10.408;2022-09-27T01:31:50;10.20;99.90
7000;DHT22;3540;53.242;10.408;2022-09-27T01:34:38;10.20;99.90
7000;DHT22;3540;53.242;10.408;2022-09-27T01:43:45;10.20;99.90
7000;DHT22;3540;53.242;10.408;2022-09-27T01:46:37;10.10;99.90
7000;DHT22;3540;53.242;10.408;2022-09-27T01:49:12;10.20;99.90
7000;DHT22;3540;53.242;10.408;2022-09-27T01:51:53;10.10;99.90
7000;DHT22;3540;53.242;10.408;2022-09-27T01:54:23;10.10;99.90
7000;DHT22;3540;53.242;10.408;2022-09-27T01:56:54;10.10;99.90
7000;DHT22;3540;53.242;10.408;2022-09-27T01:59:25;10.10;99.90
7000;DHT22;3540;53.242;10.408;2022-09-27T02:01:55;10.10;99.90
7000;DHT22;3540;53.242;10.408;2022-09-27T02:04:27;10.20;99.90
7000;DHT22;3540;53.242;10.408;2022-09-27T02:06:58;10.20;99.90
7000;DHT22;3540;53.242;10.408;2022-09-27T02:09:30;10.20;99.90
7000;DHT22;3540;53.242;10.408;2022-09-27T02:12:03;10.20;99.90
7000;DHT22;3540;53.242;10.408;2022-09-27T02:14:39;10.20;99.90
7000;DHT22;3540;53.242;10.408;2022-09-27T02:25:32;10.10;99.90
7000;DHT22;3540;53.242;10.408;2022-09-27T02:28:21;10.10;99.90
7000;DHT22;3540;53.242;10.408;2022-09-27T02:30:49;10.20;99.90
7000;DHT22;3540;53.242;10.408;2022-09-27T02:33:15;10.20;99.90
7000;DHT22;3540;53.242;10.408;2022-09-27T02:35:42;10.20;99.90
7000;DHT22;3540;53.242;10.408;2022-09-27T02:38:07;10.20;99.90
7000;DHT22;3540;53.242;10.408;2022-09-27T02:40:40;10.20;99.90
7000;DHT22;3540;53.242;10.408;2022-09-27T02:43:06;10.20;99.90
7000;DHT22;3540;53.242;10.408;2022-09-27T02:48:39;10.20;99.90
7000;DHT22;3540;53.242;10.408;2022-09-27T02:51:35;10.20;99.90
7000;DHT22;3540;53.242;10.408;2022-09-27T02:57:35;10.20;99.90
7000;DHT22;3540;53.242;10.408;2022-09-27T03:00:15;10.20;99.90
7000;DHT22;3540;53.242;10.408;2022-09-27T03:05:20;10.20;99.90
7000;DHT22;3540;53.242;10.408;2022-09-27T03:07:47;10.20;99.90
7000;DHT22;3540;53.242;10.408;2022-09-27T03:10:22;10.20;99.90
7000;DHT22;3540;53.242;10.408;2022-09-27T03:12:48;10.10;99.90
7000;DHT22;3540;53.242;10.408;2022-09-27T03:15:14;10.10;99.90
7000;DHT22;3540;53.242;10.408;2022-09-27T03:17:40;10.10;99.90
7000;DHT22;3540;53.242;10.408;2022-09-27T03:20:07;10.10;99.90
7000;DHT22;3540;53.242;10.408;2022-09-27T03:22:33;10.10;99.90
7000;DHT22;3540;53.242;10.408;2022-09-27T03:24:59;10.10;99.90
7000;DHT22;3540;53.242;10.408;2022-09-27T03:27:25;10.10;99.90
7000;DHT22;3540;53.242;10.408;2022-09-27T03:29:50;10.20;99.90
7000;DHT22;3540;53.242;10.408;2022-09-27T03:32:16;10.10;99.90
7000;DHT22;3540;53.242;10.408;2022-09-27T03:34:42;10.10;99.90
7000;DHT22;3540;53.242;10.408;2022-09-27T03:37:07;10.20;99.90
7000;DHT22;3540;53.242;10.408;2022-09-27T03:39:34;10.20;99.90
7000;DHT22;3540;53.242;10.408;2022-09-27T03:41:59;10.20;99.90
7000;DHT22;3540;53.242;10.408;2022-09-27T03:44:25;10.20;99.90
7000;DHT22;3540;53.242;10.408;2022-09-27T03:46:51;10.20;99.90
7000;DHT22;3540;53.242;10.408;2022-09-27T03:49:16;10.20;99.90
7000;DHT22;3540;53.242;10.408;2022-09-27T03:51:42;10.20;99.90
7000;DHT22;3540;53.242;10.408;2022-09-27T03:54:08;10.20;99.90
7000;DHT22;3540;53.242;10.408;2022-09-27T03:56:34;10.20;99.90
7000;DHT22;3540;53.242;10.408;2022-09-27T03:59:00;10.20;99.90
7000;DHT22;3540;53.242;10.408;2022-09-27T04:01:26;10.10;99.90
7000;DHT22;3540;53.242;10.408;2022-09-27T04:03:52;10.20;99.90
7000;DHT22;3540;53.242;10.408;2022-09-27T04:06:18;10.20;99.90
7000;DHT22;3540;53.242;10.408;2022-09-27T04:08:44;10.20;99.90
7000;DHT22;3540;53.242;10.408;2022-09-27T04:11:10;10.20;99.90
7000;DHT22;3540;53.242;10.408;2022-09-27T04:13:36;10.20;99.90
7000;DHT22;3540;53.242;10.408;2022-09-27T04:16:02;10.20;99.90
7000;DHT22;3540;53.242;10.408;2022-09-27T04:18:28;10.20;99.90
7000;DHT22;3540;53.242;10.408;2022-09-27T04:20:54;10.30;99.90
7000;DHT22;3540;53.242;10.408;2022-09-27T04:23:19;10.30;99.90
7000;DHT22;3540;53.242;10.408;2022-09-27T04:25:46;10.30;99.90
7000;DHT22;3540;53.242;10.408;2022-09-27T04:28:11;10.20;99.90
7000;DHT22;3540;53.242;10.408;2022-09-27T04:30:37;10.30;99.90
7000;DHT22;3540;53.242;10.408;2022-09-27T04:33:03;10.30;99.90
7000;DHT22;3540;53.242;10.408;2022-09-27T04:35:29;10.30;99.90
7000;DHT22;3540;53.242;10.408;2022-09-27T04:38:13;10.20;99.90
7000;DHT22;3540;53.242;10.408;2022-09-27T04:40:39;10.20;99.90
7000;DHT22;3540;53.242;10.408;2022-09-27T04:43:05;10.20;99.90
7000;DHT22;3540;53.242;10.408;2022-09-27T04:45:31;10.20;99.90
7000;DHT22;3540;53.242;10.408;2022-09-27T04:47:56;10.20;99.90
7000;DHT22;3540;53.242;10.408;2022-09-27T04:50:22;10.20;99.90
7000;DHT22;3540;53.242;10.408;2022-09-27T04:52:51;10.20;99.90
7000;DHT22;3540;53.242;10.408;2022-09-27T04:55:18;10.20;99.90
7000;DHT22;3540;53.242;10.408;2022-09-27T04:57:44;10.20;99.90
7000;DHT22;3540;53.242;10.408;2022-09-27T05:00:12;10.20;99.90
7000;DHT22;3540;53.242;10.408;2022-09-27T05:02:38;10.20;99.90
7000;DHT22;3540;53.242;10.408;2022-09-27T05:05:04;10.20;99.90
7000;DHT22;3540;53.242;10.408;2022-09-27T05:07:33;10.20;99.90
7000;DHT22;3540;53.242;10.408;2022-09-27T05:09:58;10.20;99.90
7000;DHT22;3540;53.242;10.408;2022-09-27T05:12:24;10.20;99.90
7000;DHT22;3540;53.242;10.408;2022-09-27T05:14:51;10.30;99.90
7000;DHT22;3540;53.242;10.408;2022-09-27T05:17:17;10.30;99.90
7000;DHT22;3540;53.242;10.408;2022-09-27T05:19:43;10.30;99.90
7000;DHT22;3540;53.242;10.408;2022-09-27T05:22:09;10.30;99.90
7000;DHT22;3540;53.242;10.408;2022-09-27T05:24:35;10.30;99.90
7000;DHT22;3540;53.242;10.408;2022-09-27T05:27:03;10.30;99.90
7000;DHT22;3540;53.242;10.408;2022-09-27T05:29:30;10.40;99.90
7000;DHT22;3540;53.242;10.408;2022-09-27T05:31:56;10.40;99.90
7000;DHT22;3540;53.242;10.408;2022-09-27T05:34:21;10.40;99.90
7000;DHT22;3540;53.242;10.408;2022-09-27T05:36:47;10.40;99.90
7000;DHT22;3540;53.242;10.408;2022-09-27T05:39:13;10.40;99.90
7000;DHT22;3540;53.242;10.408;2022-09-27T05:41:41;10.40;99.90
7000;DHT22;3540;53.242;10.408;2022-09-27T05:44:07;10.30;99.90
7000;DHT22;3540;53.242;10.408;2022-09-27T05:46:32;10.30;99.90
7000;DHT22;3540;53.242;10.408;2022-09-27T05:48:58;10.30;99.90
7000;DHT22;3540;53.242;10.408;2022-09-27T05:51:24;10.30;99.90
7000;DHT22;3540;53.242;10.408;2022-09-27T05:53:49;10.30;99.90
7000;DHT22;3540;53.242;10.408;2022-09-27T05:56:15;10.30;99.90
7000;DHT22;3540;53.242;10.408;2022-09-27T05:58:41;10.30;99.90
7000;DHT22;3540;53.242;10.408;2022-09-27T06:01:08;10.30;99.90
7000;DHT22;3540;53.242;10.408;2022-09-27T06:03:34;10.30;99.90
7000;DHT22;3540;53.242;10.408;2022-09-27T06:06:02;10.30;99.90
7000;DHT22;3540;53.242;10.408;2022-09-27T06:08:38;10.30;99.90
7000;DHT22;3540;53.242;10.408;2022-09-27T06:11:09;10.30;99.90
7000;DHT22;3540;53.242;10.408;2022-09-27T06:13:37;10.40;99.90
7000;DHT22;3540;53.242;10.408;2022-09-27T06:16:04;10.40;99.90
7000;DHT22;3540;53.242;10.408;2022-09-27T06:18:30;10.40;99.90
7000;DHT22;3540;53.242;10.408;2022-09-27T06:20:58;10.40;99.90
7000;DHT22;3540;53.242;10.408;2022-09-27T06:23:25;10.50;99.90
7000;DHT22;3540;53.242;10.408;2022-09-27T06:25:51;10.50;99.90
7000;DHT22;3540;53.242;10.408;2022-09-27T06:28:17;10.50;99.90
7000;DHT22;3540;53.242;10.408;2022-09-27T06:30:45;10.50;99.90
7000;DHT22;3540;53.242;10.408;2022-09-27T06:33:13;10.50;99.90
7000;DHT22;3540;53.242;10.408;2022-09-27T06:35:39;10.60;99.90
7000;DHT22;3540;53.242;10.408;2022-09-27T06:38:08;10.50;99.90
7000;DHT22;3540;53.242;10.408;2022-09-27T06:40:35;10.60;99.90
7000;DHT22;3540;53.242;10.408;2022-09-27T06:43:06;10.60;99.90
7000;DHT22;3540;53.242;10.408;2022-09-27T06:45:35;10.60;99.90
7000;DHT22;3540;53.242;10.408;2022-09-27T06:48:02;10.60;99.90
7000;DHT22;3540;53.242;10.408;2022-09-27T06:50:29;10.60;99.90
7000;DHT22;3540;53.242;10.408;2022-09-27T06:52:55;10.60;99.90
7000;DHT22;3540;53.242;10.408;2022-09-27T06:55:21;10.60;99.90
7000;DHT22;3540;53.242;10.408;2022-09-27T06:57:47;10.60;99.90
7000;DHT22;3540;53.242;10.408;2022-09-27T07:00:31;10.70;99.90
7000;DHT22;3540;53.242;10.408;2022-09-27T07:02:57;10.70;99.90
7000;DHT22;3540;53.242;10.408;2022-09-27T07:05:29;10.70;99.90
7000;DHT22;3540;53.242;10.408;2022-09-27T07:07:58;10.70;99.90
7000;DHT22;3540;53.242;10.408;2022-09-27T07:10:33;10.70;99.90
7000;DHT22;3540;53.242;10.408;2022-09-27T07:13:04;10.70;99.90
7000;DHT22;3540;53.242;10.408;2022-09-27T07:15:30;10.80;99.90
7000;DHT22;3540;53.242;10.408;2022-09-27T07:17:58;10.80;99.90
7000;DHT22;3540;53.242;10.408;2022-09-27T07:20:27;10.90;99.90
7000;DHT22;3540;53.242;10.408;2022-09-27T07:22:57;10.90;99.90
7000;DHT22;3540;53.242;10.408;2022-09-27T07:25:24;11.00;99.90
7000;DHT22;3540;53.242;10.408;2022-09-27T07:27:50;11.00;99.90
7000;DHT22;3540;53.242;10.408;2022-09-27T07:30:18;11.10;99.90
7000;DHT22;3540;53.242;10.408;2022-09-27T07:32:44;11.20;99.90
7000;DHT22;3540;53.242;10.408;2022-09-27T07:35:11;11.30;99.90
7000;DHT22;3540;53.242;10.408;2022-09-27T07:37:37;11.30;99.90
7000;DHT22;3540;53.242;10.408;2022-09-27T07:40:06;11.50;99.90
7000;DHT22;3540;53.242;10.408;2022-09-27T07:42:33;11.50;99.90
7000;DHT22;3540;53.242;10.408;2022-09-27T07:44:58;11.50;99.90
7000;DHT22;3540;53.242;10.408;2022-09-27T07:47:25;11.50;99.90
7000;DHT22;3540;53.242;10.408;2022-09-27T07:49:52;11.40;99.90
7000;DHT22;3540;53.242;10.408;2022-09-27T07:52:18;11.50;99.90
7000;DHT22;3540;53.242;10.408;2022-09-27T07:54:45;11.50;99.90
7000;DHT22;3540;53.242;10.408;2022-09-27T07:57:12;11.60;99.90
7000;DHT22;3540;53.242;10.408;2022-09-27T07:59:39;11.60;99.90
7000;DHT22;3540;53.242;10.408;2022-09-27T08:02:05;11.60;99.90
7000;DHT22;3540;53.242;10.408;2022-09-27T08:04:31;11.70;99.90
7000;DHT22;3540;53.242;10.408;2022-09-27T08:06:57;11.60;99.90
7000;DHT22;3540;53.242;10.408;2022-09-27T08:09:22;11.80;99.90
7000;DHT22;3540;53.242;10.408;2022-09-27T08:11:50;11.80;99.90
7000;DHT22;3540;53.242;10.408;2022-09-27T08:14:16;11.80;99.90
7000;DHT22;3540;53.242;10.408;2022-09-27T08:16:43;11.80;99.90
7000;DHT22;3540;53.242;10.408;2022-09-27T08:19:08;11.80;99.90
7000;DHT22;3540;53.242;10.408;2022-09-27T08:21:35;11.80;99.90
7000;DHT22;3540;53.242;10.408;2022-09-27T08:24:01;11.80;99.90
7000;DHT22;3540;53.242;10.408;2022-09-27T08:26:28;11.70;99.90
7000;DHT22;3540;53.242;10.408;2022-09-27T08:28:54;11.70;99.90
7000;DHT22;3540;53.242;10.408;2022-09-27T08:31:19;11.60;99.90
7000;DHT22;3540;53.242;10.408;2022-09-27T08:33:49;11.70;99.90
7000;DHT22;3540;53.242;10.408;2022-09-27T08:36:15;11.60;99.90
7000;DHT22;3540;53.242;10.408;2022-09-27T08:38:42;11.60;99.90
7000;DHT22;3540;53.242;10.408;2022-09-27T08:44:26;11.60;99.90
7000;DHT22;3540;53.242;10.408;2022-09-27T08:49:48;11.40;99.90
7000;DHT22;3540;53.242;10.408;2022-09-27T08:52:26;11.40;99.90
7000;DHT22;3540;53.242;10.408;2022-09-27T08:54:55;11.40;99.90
7000;DHT22;3540;53.242;10.408;2022-09-27T08:57:23;11.40;99.90
7000;DHT22;3540;53.242;10.408;2022-09-27T09:00:12;11.30;99.90
7000;DHT22;3540;53.242;10.408;2022-09-27T09:02:40;11.40;99.90
7000;DHT22;3540;53.242;10.408;2022-09-27T09:05:09;11.40;99.90
7000;DHT22;3540;53.242;10.408;2022-09-27T09:13:17;11.50;99.90
7000;DHT22;3540;53.242;10.408;2022-09-27T09:21:34;11.60;99.90
7000;DHT22;3540;53.242;10.408;2022-09-27T09:27:01;11.40;99.90
7000;DHT22;3540;53.242;10.408;2022-09-27T09:34:42;11.60;99.90
7000;DHT22;3540;53.242;10.408;2022-09-27T09:37:40;11.50;99.90
7000;DHT22;3540;53.242;10.408;2022-09-27T09:41:06;11.50;99.90
7000;DHT22;3540;53.242;10.408;2022-09-27T09:43:46;11.60;99.90
7000;DHT22;3540;53.242;10.408;2022-09-27T09:51:50;11.80;99.90
7000;DHT22;3540;53.242;10.408;2022-09-27T09:54:32;11.80;99.90
7000;DHT22;3540;53.242;10.408;2022-09-27T09:57:10;11.90;99.90
7000;DHT22;3540;53.242;10.408;2022-09-27T10:02:31;12.00;99.90
7000;DHT22;3540;53.242;10.408;2022-09-27T10:04:57;12.10;99.90
7000;DHT22;3540;53.242;10.408;2022-09-27T10:07:23;12.10;99.90
7000;DHT22;3540;53.242;10.408;2022-09-27T10:09:51;12.10;99.90
7000;DHT22;3540;53.242;10.408;2022-09-27T10:12:18;12.20;99.90
7000;DHT22;3540;53.242;10.408;2022-09-27T10:14:46;12.30;99.90
7000;DHT22;3540;53.242;10.408;2022-09-27T10:17:17;12.30;99.90
7000;DHT22;3540;53.242;10.408;2022-09-27T10:19:43;12.40;99.90
7000;DHT22;3540;53.242;10.408;2022-09-27T10:22:39;12.60;99.90
7000;DHT22;3540;53.242;10.408;2022-09-27T10:25:07;12.70;99.90
7000;DHT22;3540;53.242;10.408;2022-09-27T10:30:21;13.00;99.90
7000;DHT22;3540;53.242;10.408;2022-09-27T10:32:52;12.90;99.90
7000;DHT22;3540;53.242;10.408;2022-09-27T10:40:54;12.80;99.90
7000;DHT22;3540;53.242;10.408;2022-09-27T10:45:49;13.30;99.90
7000;DHT22;3540;53.242;10.408;2022-09-27T10:48:21;13.30;99.90
7000;DHT22;3540;53.242;10.408;2022-09-27T10:51:00;13.30;99.90
7000;DHT22;3540;53.242;10.408;2022-09-27T10:53:27;13.00;99.90
7000;DHT22;3540;53.242;10.408;2022-09-27T10:55:54;13.00;99.90
7000;DHT22;3540;53.242;10.408;2022-09-27T11:01:13;13.00;99.90
7000;DHT22;3540;53.242;10.408;2022-09-27T11:03:48;12.90;99.90
7000;DHT22;3540;53.242;10.408;2022-09-27T11:08:50;12.90;99.90
7000;DHT22;3540;53.242;10.408;2022-09-27T11:11:19;12.90;99.90
7000;DHT22;3540;53.242;10.408;2022-09-27T11:13:59;12.90;99.90
7000;DHT22;3540;53.242;10.408;2022-09-27T11:21:54;13.10;99.90
7000;DHT22;3540;53.242;10.408;2022-09-27T11:32:54;12.00;99.90
7000;DHT22;3540;53.242;10.408;2022-09-27T11:43:39;11.90;99.90
7000;DHT22;3540;53.242;10.408;2022-09-27T11:57:10;12.40;99.90
7000;DHT22;3540;53.242;10.408;2022-09-27T12:07:46;12.50;99.90
7000;DHT22;3540;53.242;10.408;2022-09-27T12:10:17;12.50;99.90
7000;DHT22;3540;53.242;10.408;2022-09-27T12:12:49;12.70;99.90
7000;DHT22;3540;53.242;10.408;2022-09-27T12:15:39;12.80;99.90
7000;DHT22;3540;53.242;10.408;2022-09-27T12:18:17;12.70;99.90
7000;DHT22;3540;53.242;10.408;2022-09-27T12:20:46;12.60;99.90
7000;DHT22;3540;53.242;10.408;2022-09-27T12:26:25;11.90;99.90
7000;DHT22;3540;53.242;10.408;2022-09-27T12:28:56;11.40;99.90
7000;DHT22;3540;53.242;10.408;2022-09-27T12:31:30;11.20;99.90
7000;DHT22;3540;53.242;10.408;2022-09-27T12:34:14;11.10;99.90
7000;DHT22;3540;53.242;10.408;2022-09-27T12:36:46;11.10;99.90
7000;DHT22;3540;53.242;10.408;2022-09-27T12:39:32;11.10;99.90
7000;DHT22;3540;53.242;10.408;2022-09-27T12:42:11;11.20;99.90
7000;DHT22;3540;53.242;10.408;2022-09-27T12:44:39;11.30;99.90
7000;DHT22;3540;53.242;10.408;2022-09-27T12:50:33;11.60;99.90
7000;DHT22;3540;53.242;10.408;2022-09-27T12:53:15;11.70;99.90
7000;DHT22;3540;53.242;10.408;2022-09-27T13:12:17;13.20;99.90
7000;DHT22;3540;53.242;10.408;2022-09-27T13:14:59;12.90;99.90
7000;DHT22;3540;53.242;10.408;2022-09-27T13:22:53;12.60;99.90
7000;DHT22;3540;53.242;10.408;2022-09-27T13:25:54;12.60;99.90
7000;DHT22;3540;53.242;10.408;2022-09-27T13:28:34;12.50;99.90
7000;DHT22;3540;53.242;10.408;2022-09-27T13:42:39;12.10;99.90
7000;DHT22;3540;53.242;10.408;2022-09-27T13:45:25;12.10;99.90
7000;DHT22;3540;53.242;10.408;2022-09-27T13:47:54;12.10;99.90
7000;DHT22;3540;53.242;10.408;2022-09-27T13:50:32;12.10;99.90
7000;DHT22;3540;53.242;10.408;2022-09-27T13:53:36;12.10;99.90
7000;DHT22;3540;53.242;10.408;2022-09-27T13:56:03;12.10;99.90
7000;DHT22;3540;53.242;10.408;2022-09-27T14:01:26;12.10;99.90
7000;DHT22;3540;53.242;10.408;2022-09-27T14:03:51;12.20;99.90
7000;DHT22;3540;53.242;10.408;2022-09-27T14:06:21;12.20;99.90
7000;DHT22;3540;53.242;10.408;2022-09-27T14:08:51;12.10;99.90
7000;DHT22;3540;53.242;10.408;2022-09-27T14:11:25;12.00;99.90
7000;DHT22;3540;53.242;10.408;2022-09-27T14:13:53;11.90;99.90
7000;DHT22;3540;53.242;10.408;2022-09-27T14:16:19;11.90;99.90
7000;DHT22;3540;53.242;10.408;2022-09-27T14:18:49;11.80;99.90
7000;DHT22;3540;53.242;10.408;2022-09-27T14:21:33;11.90;99.90
7000;DHT22;3540;53.242;10.408;2022-09-27T14:24:23;11.80;99.90
7000;DHT22;3540;53.242;10.408;2022-09-27T14:27:02;11.80;99.90
7000;DHT22;3540;53.242;10.408;2022-09-27T14:29:32;11.70;99.90
7000;DHT22;3540;53.242;10.408;2022-09-27T14:32:07;11.70;99.90
7000;DHT22;3540;53.242;10.408;2022-09-27T14:34:34;11.70;99.90
7000;DHT22;3540;53.242;10.408;2022-09-27T14:37:00;11.70;99.90
7000;DHT22;3540;53.242;10.408;2022-09-27T14:40:01;11.70;99.90
7000;DHT22;3540;53.242;10.408;2022-09-27T14:42:36;11.60;99.90
7000;DHT22;3540;53.242;10.408;2022-09-27T14:47:44;11.50;99.90
7000;DHT22;3540;53.242;10.408;2022-09-27T14:52:44;11.30;99.90
7000;DHT22;3540;53.242;10.408;2022-09-27T14:55:20;11.30;99.90
7000;DHT22;3540;53.242;10.408;2022-09-27T14:57:50;11.20;99.90
7000;DHT22;3540;53.242;10.408;2022-09-27T15:00:18;11.10;99.90
7000;DHT22;3540;53.242;10.408;2022-09-27T15:02:45;11.00;99.90
7000;DHT22;3540;53.242;10.408;2022-09-27T15:05:16;11.00;99.90
7000;DHT22;3540;53.242;10.408;2022-09-27T15:07:44;11.00;99.90
7000;DHT22;3540;53.242;10.408;2022-09-27T15:10:21;11.00;99.90
7000;DHT22;3540;53.242;10.408;2022-09-27T15:12:51;11.00;99.90
7000;DHT22;3540;53.242;10.408;2022-09-27T15:15:21;10.90;99.90
7000;DHT22;3540;53.242;10.408;2022-09-27T15:17:49;11.00;99.90
7000;DHT22;3540;53.242;10.408;2022-09-27T15:22:46;11.00;99.90
7000;DHT22;3540;53.242;10.408;2022-09-27T15:27:49;10.90;99.90
7000;DHT22;3540;53.242;10.408;2022-09-27T15:30:18;11.00;99.90
7000;DHT22;3540;53.242;10.408;2022-09-27T15:32:49;11.00;99.90
7000;DHT22;3540;53.242;10.408;2022-09-27T15:35:30;11.00;99.90
7000;DHT22;3540;53.242;10.408;2022-09-27T15:43:21;11.10;99.90
7000;DHT22;3540;53.242;10.408;2022-09-27T15:45:53;11.10;99.90
7000;DHT22;3540;53.242;10.408;2022-09-27T15:48:19;11.20;99.90
7000;DHT22;3540;53.242;10.408;2022-09-27T15:50:46;11.20;99.90
7000;DHT22;3540;53.242;10.408;2022-09-27T15:55:58;11.10;99.90
7000;DHT22;3540;53.242;10.408;2022-09-27T15:58:24;11.10;99.90
7000;DHT22;3540;53.242;10.408;2022-09-27T16:00:58;11.10;99.90
7000;DHT22;3540;53.242;10.408;2022-09-27T16:03:27;11.10;99.90
7000;DHT22;3540;53.242;10.408;2022-09-27T16:05:55;11.10;99.90
7000;DHT22;3540;53.242;10.408;2022-09-27T16:08:22;11.00;99.90
7000;DHT22;3540;53.242;10.408;2022-09-27T16:10:53;11.00;99.90
7000;DHT22;3540;53.242;10.408;2022-09-27T16:13:23;11.00;99.90
7000;DHT22;3540;53.242;10.408;2022-09-27T16:15:49;11.00;99.90
7000;DHT22;3540;53.242;10.408;2022-09-27T16:18:16;10.90;99.90
7000;DHT22;3540;53.242;10.408;2022-09-27T16:20:42;11.00;99.90
7000;DHT22;3540;53.242;10.408;2022-09-27T16:23:07;10.90;99.90
7000;DHT22;3540;53.242;10.408;2022-09-27T16:25:33;10.90;99.90
7000;DHT22;3540;53.242;10.408;2022-09-27T16:28:00;10.90;99.90
7000;DHT22;3540;53.242;10.408;2022-09-27T16:30:27;10.90;99.90
7000;DHT22;3540;53.242;10.408;2022-09-27T16:32:52;10.90;99.90
7000;DHT22;3540;53.242;10.408;2022-09-27T16:35:20;10.90;99.90
7000;DHT22;3540;53.242;10.408;2022-09-27T16:37:46;10.90;99.90
7000;DHT22;3540;53.242;10.408;2022-09-27T16:40:13;10.90;99.90
7000;DHT22;3540;53.242;10.408;2022-09-27T16:42:40;10.80;99.90
7000;DHT22;3540;53.242;10.408;2022-09-27T16:45:07;10.80;99.90
7000;DHT22;3540;53.242;10.408;2022-09-27T16:47:33;10.80;99.90
7000;DHT22;3540;53.242;10.408;2022-09-27T16:50:00;10.80;99.90
7000;DHT22;3540;53.242;10.408;2022-09-27T16:52:45;10.80;99.90
7000;DHT22;3540;53.242;10.408;2022-09-27T16:55:15;10.70;99.90
7000;DHT22;3540;53.242;10.408;2022-09-27T16:57:45;10.70;99.90
7000;DHT22;3540;53.242;10.408;2022-09-27T17:00:11;10.70;99.90
7000;DHT22;3540;53.242;10.408;2022-09-27T17:02:37;10.70;99.90
7000;DHT22;3540;53.242;10.408;2022-09-27T17:05:03;10.60;99.90
7000;DHT22;3540;53.242;10.408;2022-09-27T17:07:29;10.60;99.90
7000;DHT22;3540;53.242;10.408;2022-09-27T17:09:54;10.60;99.90
7000;DHT22;3540;53.242;10.408;2022-09-27T17:12:20;10.60;99.90
7000;DHT22;3540;53.242;10.408;2022-09-27T17:14:50;10.50;99.90
7000;DHT22;3540;53.242;10.408;2022-09-27T17:17:18;10.50;99.90
7000;DHT22;3540;53.242;10.408;2022-09-27T17:19:44;10.40;99.90
7000;DHT22;3540;53.242;10.408;2022-09-27T17:22:10;10.40;99.90
7000;DHT22;3540;53.242;10.408;2022-09-27T17:24:35;10.40;99.90
7000;DHT22;3540;53.242;10.408;2022-09-27T17:27:01;10.30;99.90
7000;DHT22;3540;53.242;10.408;2022-09-27T17:29:27;10.20;99.90
7000;DHT22;3540;53.242;10.408;2022-09-27T17:31:53;10.20;99.90
7000;DHT22;3540;53.242;10.408;2022-09-27T17:34:18;10.10;99.90
7000;DHT22;3540;53.242;10.408;2022-09-27T17:36:44;10.10;99.90
7000;DHT22;3540;53.242;10.408;2022-09-27T17:39:16;10.00;99.90
7000;DHT22;3540;53.242;10.408;2022-09-27T17:41:43;10.00;99.90
7000;DHT22;3540;53.242;10.408;2022-09-27T17:44:10;10.00;99.90
7000;DHT22;3540;53.242;10.408;2022-09-27T17:46:36;9.90;99.90
7000;DHT22;3540;53.242;10.408;2022-09-27T17:49:02;9.80;99.90
7000;DHT22;3540;53.242;10.408;2022-09-27T17:51:48;9.80;99.90
7000;DHT22;3540;53.242;10.408;2022-09-27T17:54:14;9.70;99.90
7000;DHT22;3540;53.242;10.408;2022-09-27T17:56:42;9.70;99.90
7000;DHT22;3540;53.242;10.408;2022-09-27T17:59:08;9.70;99.90
7000;DHT22;3540;53.242;10.408;2022-09-27T18:01:36;9.60;99.90
7000;DHT22;3540;53.242;10.408;2022-09-27T18:04:04;9.60;99.90
7000;DHT22;3540;53.242;10.408;2022-09-27T18:06:29;9.60;99.90
7000;DHT22;3540;53.242;10.408;2022-09-27T18:08:55;9.60;99.90
7000;DHT22;3540;53.242;10.408;2022-09-27T18:11:23;9.60;99.90
7000;DHT22;3540;53.242;10.408;2022-09-27T18:13:57;9.50;99.90
7000;DHT22;3540;53.242;10.408;2022-09-27T18:16:25;9.50;99.90
7000;DHT22;3540;53.242;10.408;2022-09-27T18:18:54;9.50;99.90
7000;DHT22;3540;53.242;10.408;2022-09-27T18:21:20;9.50;99.90
7000;DHT22;3540;53.242;10.408;2022-09-27T18:23:49;9.40;99.90
7000;DHT22;3540;53.242;10.408;2022-09-27T18:26:18;9.40;99.90
7000;DHT22;3540;53.242;10.408;2022-09-27T18:28:46;9.40;99.90
7000;DHT22;3540;53.242;10.408;2022-09-27T18:31:14;9.40;99.90
7000;DHT22;3540;53.242;10.408;2022-09-27T18:33:41;9.40;99.90
7000;DHT22;3540;53.242;10.408;2022-09-27T18:36:13;9.40;99.90
7000;DHT22;3540;53.242;10.408;2022-09-27T18:38:39;9.30;99.90
7000;DHT22;3540;53.242;10.408;2022-09-27T18:41:10;9.30;99.90
7000;DHT22;3540;53.242;10.408;2022-09-27T18:43:37;9.30;99.90
7000;DHT22;3540;53.242;10.408;2022-09-27T18:46:05;9.30;99.90
7000;DHT22;3540;53.242;10.408;2022-09-27T18:48:31;9.30;99.90
7000;DHT22;3540;53.242;10.408;2022-09-27T18:50:58;9.30;99.90
7000;DHT22;3540;53.242;10.408;2022-09-27T18:53:24;9.30;99.90
7000;DHT22;3540;53.242;10.408;2022-09-27T18:55:50;9.30;99.90
7000;DHT22;3540;53.242;10.408;2022-09-27T18:58:16;9.30;99.90
7000;DHT22;3540;53.242;10.408;2022-09-27T19:00:42;9.20;99.90
7000;DHT22;3540;53.242;10.408;2022-09-27T19:03:13;9.20;99.90
7000;DHT22;3540;53.242;10.408;2022-09-27T19:05:41;9.20;99.90
7000;DHT22;3540;53.242;10.408;2022-09-27T19:08:07;9.30;99.90
7000;DHT22;3540;53.242;10.408;2022-09-27T19:10:33;9.20;99.90